sensor_id;sensor_type;location;lat;lon;timestamp;P1;durP1;ratioP1;P2;durP2;ratioP2
6077;SDS011;3067;49.470;10.394;2023-04-24T00:01:52;1.40;;;1.20;;
6077;SDS011;3067;49.470;10.394;2023-04-24T00:04:20;1.00;;;1.00;;
6077;SDS011;3067;49.470;10.394;2023-04-24T00:06:50;1.00;;;0.80;;
6077;SDS011;3067;49.470;10.394;2023-04-24T00:09:22;3.23;;;0.90;;
6077;SDS011;3067;49.470;10.394;2023-04-24T00:11:49;1.17;;;0.90;;
6077;SDS011;3067;49.470;10.394;2023-04-24T00:14:17;0.90;;;0.90;;
6077;SDS011;3067;49.470;10.394;2023-04-24T00:16:44;0.93;;;0.93;;
6077;SDS011;3067;49.470;10.394;2023-04-24T00:19:13;1.10;;;1.10;;
6077;SDS011;3067;49.470;10.394;2023-04-24T00:21:40;1.43;;;0.90;;
6077;SDS011;3067;49.470;10.394;2023-04-24T00:24:07;1.27;;;0.90;;
6077;SDS011;3067;49.470;10.394;2023-04-24T00:26:35;1.00;;;0.90;;
6077;SDS011;3067;49.470;10.394;2023-04-24T00:29:02;1.37;;;0.80;;
6077;SDS011;3067;49.470;10.394;2023-04-24T00:31:29;0.90;;;0.90;;
6077;SDS011;3067;49.470;10.394;2023-04-24T00:33:59;0.80;;;0.80;;
6077;SDS011;3067;49.470;10.394;2023-04-24T00:36:28;1.13;;;1.13;;
6077;SDS011;3067;49.470;10.394;2023-04-24T00:38:56;0.80;;;0.80;;
6077;SDS011;3067;49.470;10.394;2023-04-24T00:41:24;0.70;;;0.70;;
6077;SDS011;3067;49.470;10.394;2023-04-24T00:43:51;0.83;;;0.83;;
6077;SDS011;3067;49.470;10.394;2023-04-24T00:46:19;0.97;;;0.80;;
6077;SDS011;3067;49.470;10.394;2023-04-24T00:48:46;1.13;;;0.80;;
6077;SDS011;3067;49.470;10.394;2023-04-24T00:51:13;0.80;;;0.80;;
6077;SDS011;3067;49.470;10.394;2023-04-24T00:53:42;1.00;;;0.77;;
6077;SDS011;3067;49.470;10.394;2023-04-24T00:56:09;0.70;;;0.70;;
6077;SDS011;3067;49.470;10.394;2023-04-24T00:58:37;0.90;;;0.90;;
6077;SDS011;3067;49.470;10.394;2023-04-24T01:01:04;0.93;;;0.93;;
6077;SDS011;3067;49.470;10.394;2023-04-24T01:03:33;1.03;;;0.97;;
6077;SDS011;3067;49.470;10.394;2023-04-24T01:06:02;0.83;;;0.83;;
6077;SDS011;3067;49.470;10.394;2023-04-24T01:08:29;0.90;;;0.90;;
6077;SDS011;3067;49.470;10.394;2023-04-24T01:10:58;1.10;;;1.10;;
6077;SDS011;3067;49.470;10.394;2023-04-24T01:13:25;1.00;;;0.80;;
6077;SDS011;3067;49.470;10.394;2023-04-24T01:15:53;0.80;;;0.80;;
6077;SDS011;3067;49.470;10.394;2023-04-24T01:18:20;0.90;;;0.80;;
6077;SDS011;3067;49.470;10.394;2023-04-24T01:20:47;0.80;;;0.80;;
6077;SDS011;3067;49.470;10.394;2023-04-24T01:23:18;0.60;;;0.60;;
6077;SDS011;3067;49.470;10.394;2023-04-24T01:25:46;1.47;;;0.90;;
6077;SDS011;3067;49.470;10.394;2023-04-24T01:28:13;0.90;;;0.90;;
6077;SDS011;3067;49.470;10.394;2023-04-24T01:30:41;0.87;;;0.73;;
6077;SDS011;3067;49.470;10.394;2023-04-24T01:33:08;0.83;;;0.83;;
6077;SDS011;3067;49.470;10.394;2023-04-24T01:35:35;1.37;;;0.80;;
6077;SDS011;3067;49.470;10.394;2023-04-24T01:38:02;1.37;;;1.03;;
6077;SDS011;3067;49.470;10.394;2023-04-24T01:40:32;0.80;;;0.80;;
6077;SDS011;3067;49.470;10.394;2023-04-24T01:42:59;0.90;;;0.90;;
6077;SDS011;3067;49.470;10.394;2023-04-24T01:45:26;0.93;;;0.93;;
6077;SDS011;3067;49.470;10.394;2023-04-24T01:47:54;1.03;;;0.93;;
6077;SDS011;3067;49.470;10.394;2023-04-24T01:50:21;0.80;;;0.80;;
6077;SDS011;3067;49.470;10.394;2023-04-24T01:52:49;0.90;;;0.90;;
6077;SDS011;3067;49.470;10.394;2023-04-24T01:55:16;1.00;;;1.00;;
6077;SDS011;3067;49.470;10.394;2023-04-24T01:57:45;1.00;;;0.90;;
6077;SDS011;3067;49.470;10.394;2023-04-24T02:00:12;0.80;;;0.80;;
6077;SDS011;3067;49.470;10.394;2023-04-24T02:02:39;0.67;;;0.67;;
6077;SDS011;3067;49.470;10.394;2023-04-24T02:05:07;0.80;;;0.80;;
6077;SDS011;3067;49.470;10.394;2023-04-24T02:07:35;0.80;;;0.80;;
6077;SDS011;3067;49.470;10.394;2023-04-24T02:10:02;0.80;;;0.80;;
6077;SDS011;3067;49.470;10.394;2023-04-24T02:12:30;0.70;;;0.70;;
6077;SDS011;3067;49.470;10.394;2023-04-24T02:14:59;0.70;;;0.70;;
6077;SDS011;3067;49.470;10.394;2023-04-24T02:17:26;0.80;;;0.80;;
6077;SDS011;3067;49.470;10.394;2023-04-24T02:19:53;0.80;;;0.80;;
6077;SDS011;3067;49.470;10.394;2023-04-24T02:22:21;2.30;;;0.90;;
6077;SDS011;3067;49.470;10.394;2023-04-24T02:24:48;0.70;;;0.70;;
6077;SDS011;3067;49.470;10.394;2023-04-24T02:27:15;0.70;;;0.70;;
6077;SDS011;3067;49.470;10.394;2023-04-24T02:29:42;0.60;;;0.60;;
6077;SDS011;3067;49.470;10.394;2023-04-24T02:32:11;0.60;;;0.60;;
6077;SDS011;3067;49.470;10.394;2023-04-24T02:34:40;0.90;;;0.90;;
6077;SDS011;3067;49.470;10.394;2023-04-24T02:37:07;1.17;;;1.07;;
6077;SDS011;3067;49.470;10.394;2023-04-24T02:39:35;0.77;;;0.77;;
6077;SDS011;3067;49.470;10.394;2023-04-24T02:42:02;0.80;;;0.80;;
6077;SDS011;3067;49.470;10.394;2023-04-24T02:44:30;0.80;;;0.80;;
6077;SDS011;3067;49.470;10.394;2023-04-24T02:46:57;0.93;;;0.70;;
6077;SDS011;3067;49.470;10.394;2023-04-24T02:49:26;1.70;;;1.60;;
6077;SDS011;3067;49.470;10.394;2023-04-24T02:51:53;1.40;;;1.30;;
6077;SDS011;3067;49.470;10.394;2023-04-24T02:54:21;1.40;;;1.30;;
6077;SDS011;3067;49.470;10.394;2023-04-24T02:56:48;0.90;;;0.90;;
6077;SDS011;3067;49.470;10.394;2023-04-24T02:59:15;3.17;;;1.10;;
6077;SDS011;3067;49.470;10.394;2023-04-24T03:01:43;1.10;;;1.00;;
6077;SDS011;3067;49.470;10.394;2023-04-24T03:04:10;1.00;;;0.90;;
6077;SDS011;3067;49.470;10.394;2023-04-24T03:06:39;0.93;;;0.93;;
6077;SDS011;3067;49.470;10.394;2023-04-24T03:09:06;0.90;;;0.90;;
6077;SDS011;3067;49.470;10.394;2023-04-24T03:11:33;0.77;;;0.77;;
6077;SDS011;3067;49.470;10.394;2023-04-24T03:14:01;0.70;;;0.70;;
6077;SDS011;3067;49.470;10.394;2023-04-24T03:16:28;1.53;;;0.80;;
6077;SDS011;3067;49.470;10.394;2023-04-24T03:18:55;0.70;;;0.70;;
6077;SDS011;3067;49.470;10.394;2023-04-24T03:21:23;0.80;;;0.80;;
6077;SDS011;3067;49.470;10.394;2023-04-24T03:23:52;1.13;;;0.90;;
6077;SDS011;3067;49.470;10.394;2023-04-24T03:26:19;0.97;;;0.87;;
6077;SDS011;3067;49.470;10.394;2023-04-24T03:28:47;0.90;;;0.90;;
6077;SDS011;3067;49.470;10.394;2023-04-24T03:31:14;0.80;;;0.80;;
6077;SDS011;3067;49.470;10.394;2023-04-24T03:33:41;0.90;;;0.90;;
6077;SDS011;3067;49.470;10.394;2023-04-24T03:36:09;0.73;;;0.73;;
6077;SDS011;3067;49.470;10.394;2023-04-24T03:38:36;0.70;;;0.70;;
6077;SDS011;3067;49.470;10.394;2023-04-24T03:41:05;0.80;;;0.80;;
6077;SDS011;3067;49.470;10.394;2023-04-24T03:43:32;1.23;;;0.90;;
6077;SDS011;3067;49.470;10.394;2023-04-24T03:45:59;2.67;;;1.00;;
6077;SDS011;3067;49.470;10.394;2023-04-24T03:48:27;1.00;;;0.90;;
6077;SDS011;3067;49.470;10.394;2023-04-24T03:50:54;0.90;;;0.90;;
6077;SDS011;3067;49.470;10.394;2023-04-24T03:53:21;0.90;;;0.90;;
6077;SDS011;3067;49.470;10.394;2023-04-24T03:55:49;0.90;;;0.90;;
6077;SDS011;3067;49.470;10.394;2023-04-24T03:58:18;1.67;;;0.93;;
6077;SDS011;3067;49.470;10.394;2023-04-24T04:00:45;0.90;;;0.90;;
6077;SDS011;3067;49.470;10.394;2023-04-24T04:03:13;1.17;;;0.90;;
6077;SDS011;3067;49.470;10.394;2023-04-24T04:05:40;2.60;;;0.80;;
6077;SDS011;3067;49.470;10.394;2023-04-24T04:08:08;0.70;;;0.70;;
6077;SDS011;3067;49.470;10.394;2023-04-24T04:10:35;1.20;;;0.80;;
6077;SDS011;3067;49.470;10.394;2023-04-24T04:13:02;3.53;;;1.10;;
6077;SDS011;3067;49.470;10.394;2023-04-24T04:15:32;0.80;;;0.80;;
6077;SDS011;3067;49.470;10.394;2023-04-24T04:18:00;0.80;;;0.80;;
6077;SDS011;3067;49.470;10.394;2023-04-24T04:20:28;1.33;;;0.90;;
6077;SDS011;3067;49.470;10.394;2023-04-24T04:22:55;0.90;;;0.90;;
6077;SDS011;3067;49.470;10.394;2023-04-24T04:25:22;0.90;;;0.90;;
6077;SDS011;3067;49.470;10.394;2023-04-24T04:27:50;1.10;;;0.80;;
6077;SDS011;3067;49.470;10.394;2023-04-24T04:30:17;1.33;;;1.23;;
6077;SDS011;3067;49.470;10.394;2023-04-24T04:32:47;1.33;;;1.00;;
6077;SDS011;3067;49.470;10.394;2023-04-24T04:35:14;3.43;;;1.20;;
6077;SDS011;3067;49.470;10.394;2023-04-24T04:37:42;0.90;;;0.90;;
6077;SDS011;3067;49.470;10.394;2023-04-24T04:40:09;0.90;;;0.90;;
6077;SDS011;3067;49.470;10.394;2023-04-24T04:42:37;0.70;;;0.70;;
6077;SDS011;3067;49.470;10.394;2023-04-24T04:45:05;0.90;;;0.90;;
6077;SDS011;3067;49.470;10.394;2023-04-24T04:47:34;1.13;;;1.03;;
6077;SDS011;3067;49.470;10.394;2023-04-24T04:50:03;1.77;;;0.80;;
6077;SDS011;3067;49.470;10.394;2023-04-24T04:52:31;0.97;;;0.97;;
6077;SDS011;3067;49.470;10.394;2023-04-24T04:54:58;0.90;;;0.90;;
6077;SDS011;3067;49.470;10.394;2023-04-24T04:57:25;0.90;;;0.90;;
6077;SDS011;3067;49.470;10.394;2023-04-24T04:59:53;1.00;;;1.00;;
6077;SDS011;3067;49.470;10.394;2023-04-24T05:02:20;0.90;;;0.90;;
6077;SDS011;3067;49.470;10.394;2023-04-24T05:04:48;1.20;;;1.00;;
6077;SDS011;3067;49.470;10.394;2023-04-24T05:07:17;7.10;;;1.10;;
6077;SDS011;3067;49.470;10.394;2023-04-24T05:09:44;0.70;;;0.70;;
6077;SDS011;3067;49.470;10.394;2023-04-24T05:12:11;4.93;;;1.20;;
6077;SDS011;3067;49.470;10.394;2023-04-24T05:14:38;3.20;;;1.10;;
6077;SDS011;3067;49.470;10.394;2023-04-24T05:17:06;0.60;;;0.60;;
6077;SDS011;3067;49.470;10.394;2023-04-24T05:19:33;2.30;;;0.70;;
6077;SDS011;3067;49.470;10.394;2023-04-24T05:22:02;0.70;;;0.70;;
6077;SDS011;3067;49.470;10.394;2023-04-24T05:24:33;2.80;;;1.20;;
6077;SDS011;3067;49.470;10.394;2023-04-24T05:27:00;1.00;;;0.97;;
6077;SDS011;3067;49.470;10.394;2023-04-24T05:29:27;1.33;;;1.00;;
6077;SDS011;3067;49.470;10.394;2023-04-24T05:31:56;0.73;;;0.73;;
6077;SDS011;3067;49.470;10.394;2023-04-24T05:34:23;0.70;;;0.70;;
6077;SDS011;3067;49.470;10.394;2023-04-24T05:36:50;0.70;;;0.70;;
6077;SDS011;3067;49.470;10.394;2023-04-24T05:39:18;0.80;;;0.80;;
6077;SDS011;3067;49.470;10.394;2023-04-24T05:41:47;0.80;;;0.80;;
6077;SDS011;3067;49.470;10.394;2023-04-24T05:44:14;1.23;;;0.83;;
6077;SDS011;3067;49.470;10.394;2023-04-24T05:46:41;3.03;;;0.80;;
6077;SDS011;3067;49.470;10.394;2023-04-24T05:49:09;0.60;;;0.60;;
6077;SDS011;3067;49.470;10.394;2023-04-24T05:51:36;0.60;;;0.60;;
6077;SDS011;3067;49.470;10.394;2023-04-24T05:54:05;0.90;;;0.70;;
6077;SDS011;3067;49.470;10.394;2023-04-24T05:56:32;0.60;;;0.60;;
6077;SDS011;3067;49.470;10.394;2023-04-24T05:59:01;0.70;;;0.70;;
6077;SDS011;3067;49.470;10.394;2023-04-24T06:01:28;0.60;;;0.60;;
6077;SDS011;3067;49.470;10.394;2023-04-24T06:03:56;0.93;;;0.70;;
6077;SDS011;3067;49.470;10.394;2023-04-24T06:06:23;0.60;;;0.60;;
6077;SDS011;3067;49.470;10.394;2023-04-24T06:08:52;0.80;;;0.80;;
6077;SDS011;3067;49.470;10.394;2023-04-24T06:11:19;0.70;;;0.70;;
6077;SDS011;3067;49.470;10.394;2023-04-24T06:13:47;5.17;;;0.83;;
6077;SDS011;3067;49.470;10.394;2023-04-24T06:16:16;0.63;;;0.63;;
6077;SDS011;3067;49.470;10.394;2023-04-24T06:18:44;0.60;;;0.60;;
6077;SDS011;3067;49.470;10.394;2023-04-24T06:21:12;0.60;;;0.60;;
6077;SDS011;3067;49.470;10.394;2023-04-24T06:23:39;0.80;;;0.80;;
6077;SDS011;3067;49.470;10.394;2023-04-24T06:26:07;0.73;;;0.73;;
6077;SDS011;3067;49.470;10.394;2023-04-24T06:28:34;0.90;;;0.90;;
6077;SDS011;3067;49.470;10.394;2023-04-24T06:31:01;1.10;;;1.10;;
6077;SDS011;3067;49.470;10.394;2023-04-24T06:33:30;0.87;;;0.87;;
6077;SDS011;3067;49.470;10.394;2023-04-24T06:35:57;0.90;;;0.90;;
6077;SDS011;3067;49.470;10.394;2023-04-24T06:38:24;0.90;;;0.90;;
6077;SDS011;3067;49.470;10.394;2023-04-24T06:40:52;1.10;;;1.10;;
6077;SDS011;3067;49.470;10.394;2023-04-24T06:43:19;1.30;;;1.20;;
6077;SDS011;3067;49.470;10.394;2023-04-24T06:45:46;1.43;;;0.90;;
6077;SDS011;3067;49.470;10.394;2023-04-24T06:48:14;1.20;;;1.20;;
6077;SDS011;3067;49.470;10.394;2023-04-24T06:50:42;2.47;;;1.67;;
6077;SDS011;3067;49.470;10.394;2023-04-24T06:53:10;1.53;;;1.43;;
6077;SDS011;3067;49.470;10.394;2023-04-24T06:55:39;1.30;;;1.30;;
6077;SDS011;3067;49.470;10.394;2023-04-24T06:58:08;1.70;;;1.60;;
6077;SDS011;3067;49.470;10.394;2023-04-24T07:00:35;1.63;;;1.53;;
6077;SDS011;3067;49.470;10.394;2023-04-24T07:03:03;6.13;;;1.53;;
6077;SDS011;3067;49.470;10.394;2023-04-24T07:05:31;1.30;;;1.27;;
6077;SDS011;3067;49.470;10.394;2023-04-24T07:08:01;1.90;;;1.80;;
6077;SDS011;3067;49.470;10.394;2023-04-24T07:10:28;1.50;;;1.40;;
6077;SDS011;3067;49.470;10.394;2023-04-24T07:12:56;2.80;;;1.40;;
6077;SDS011;3067;49.470;10.394;2023-04-24T07:15:23;3.43;;;1.70;;
6077;SDS011;3067;49.470;10.394;2023-04-24T07:17:50;1.80;;;1.70;;
6077;SDS011;3067;49.470;10.394;2023-04-24T07:20:18;2.60;;;1.53;;
6077;SDS011;3067;49.470;10.394;2023-04-24T07:22:45;5.30;;;1.73;;
6077;SDS011;3067;49.470;10.394;2023-04-24T07:25:14;2.23;;;2.13;;
6077;SDS011;3067;49.470;10.394;2023-04-24T07:27:41;3.00;;;1.63;;
6077;SDS011;3067;49.470;10.394;2023-04-24T07:30:09;2.07;;;1.97;;
6077;SDS011;3067;49.470;10.394;2023-04-24T07:32:37;2.17;;;2.07;;
6077;SDS011;3067;49.470;10.394;2023-04-24T07:35:04;2.30;;;2.20;;
6077;SDS011;3067;49.470;10.394;2023-04-24T07:37:32;2.37;;;2.07;;
6077;SDS011;3067;49.470;10.394;2023-04-24T07:39:59;2.73;;;2.53;;
6077;SDS011;3067;49.470;10.394;2023-04-24T07:42:28;2.60;;;2.40;;
6077;SDS011;3067;49.470;10.394;2023-04-24T07:44:56;6.63;;;2.83;;
6077;SDS011;3067;49.470;10.394;2023-04-24T07:47:24;3.77;;;2.13;;
6077;SDS011;3067;49.470;10.394;2023-04-24T07:49:52;1.97;;;1.87;;
6077;SDS011;3067;49.470;10.394;2023-04-24T07:52:20;2.30;;;2.20;;
6077;SDS011;3067;49.470;10.394;2023-04-24T07:54:47;2.30;;;2.20;;
6077;SDS011;3067;49.470;10.394;2023-04-24T07:57:15;2.43;;;2.23;;
6077;SDS011;3067;49.470;10.394;2023-04-24T07:59:43;2.00;;;1.73;;
6077;SDS011;3067;49.470;10.394;2023-04-24T08:02:11;2.50;;;2.30;;
6077;SDS011;3067;49.470;10.394;2023-04-24T08:04:38;2.17;;;1.97;;
6077;SDS011;3067;49.470;10.394;2023-04-24T08:07:05;2.40;;;2.20;;
6077;SDS011;3067;49.470;10.394;2023-04-24T08:09:33;2.23;;;2.03;;
6077;SDS011;3067;49.470;10.394;2023-04-24T08:12:00;3.40;;;2.20;;
6077;SDS011;3067;49.470;10.394;2023-04-24T08:14:29;1.90;;;1.80;;
6077;SDS011;3067;49.470;10.394;2023-04-24T08:16:58;2.30;;;2.17;;
6077;SDS011;3067;49.470;10.394;2023-04-24T08:19:25;2.00;;;1.77;;
6077;SDS011;3067;49.470;10.394;2023-04-24T08:21:53;2.60;;;2.03;;
6077;SDS011;3067;49.470;10.394;2023-04-24T08:24:20;1.80;;;1.70;;
6077;SDS011;3067;49.470;10.394;2023-04-24T08:26:47;1.77;;;1.67;;
6077;SDS011;3067;49.470;10.394;2023-04-24T08:29:16;2.90;;;2.70;;
6077;SDS011;3067;49.470;10.394;2023-04-24T08:31:44;2.70;;;2.23;;
6077;SDS011;3067;49.470;10.394;2023-04-24T08:34:12;2.60;;;2.40;;
6077;SDS011;3067;49.470;10.394;2023-04-24T08:36:40;2.40;;;2.27;;
6077;SDS011;3067;49.470;10.394;2023-04-24T08:39:07;11.90;;;2.20;;
6077;SDS011;3067;49.470;10.394;2023-04-24T08:41:34;3.20;;;2.30;;
6077;SDS011;3067;49.470;10.394;2023-04-24T08:44:03;2.63;;;2.43;;
6077;SDS011;3067;49.470;10.394;2023-04-24T08:46:30;3.87;;;3.00;;
6077;SDS011;3067;49.470;10.394;2023-04-24T08:48:58;3.30;;;3.10;;
6077;SDS011;3067;49.470;10.394;2023-04-24T08:51:27;3.17;;;2.97;;
6077;SDS011;3067;49.470;10.394;2023-04-24T08:53:55;2.93;;;2.03;;
6077;SDS011;3067;49.470;10.394;2023-04-24T08:56:23;2.47;;;2.27;;
6077;SDS011;3067;49.470;10.394;2023-04-24T08:58:52;1.50;;;1.50;;
6077;SDS011;3067;49.470;10.394;2023-04-24T09:01:20;2.10;;;2.00;;
6077;SDS011;3067;49.470;10.394;2023-04-24T09:03:47;2.10;;;2.00;;
6077;SDS011;3067;49.470;10.394;2023-04-24T09:06:16;1.87;;;1.77;;
6077;SDS011;3067;49.470;10.394;2023-04-24T09:08:45;1.90;;;1.80;;
6077;SDS011;3067;49.470;10.394;2023-04-24T09:11:14;2.10;;;2.00;;
6077;SDS011;3067;49.470;10.394;2023-04-24T09:13:41;1.87;;;1.70;;
6077;SDS011;3067;49.470;10.394;2023-04-24T09:16:09;1.50;;;1.47;;
6077;SDS011;3067;49.470;10.394;2023-04-24T09:18:37;1.40;;;1.30;;
6077;SDS011;3067;49.470;10.394;2023-04-24T09:21:07;1.97;;;1.77;;
6077;SDS011;3067;49.470;10.394;2023-04-24T09:23:34;5.43;;;1.33;;
6077;SDS011;3067;49.470;10.394;2023-04-24T09:26:04;1.10;;;1.10;;
6077;SDS011;3067;49.470;10.394;2023-04-24T09:28:32;2.00;;;0.90;;
6077;SDS011;3067;49.470;10.394;2023-04-24T09:31:06;5.33;;;1.30;;
6077;SDS011;3067;49.470;10.394;2023-04-24T09:33:34;1.47;;;1.20;;
6077;SDS011;3067;49.470;10.394;2023-04-24T09:36:01;0.90;;;0.90;;
6077;SDS011;3067;49.470;10.394;2023-04-24T09:38:32;0.83;;;0.83;;
6077;SDS011;3067;49.470;10.394;2023-04-24T09:41:00;0.63;;;0.63;;
6077;SDS011;3067;49.470;10.394;2023-04-24T09:43:30;0.60;;;0.60;;
6077;SDS011;3067;49.470;10.394;2023-04-24T09:45:58;0.80;;;0.80;;
6077;SDS011;3067;49.470;10.394;2023-04-24T09:48:32;0.90;;;0.90;;
6077;SDS011;3067;49.470;10.394;2023-04-24T09:51:00;1.07;;;0.83;;
6077;SDS011;3067;49.470;10.394;2023-04-24T09:53:28;0.80;;;0.80;;
6077;SDS011;3067;49.470;10.394;2023-04-24T09:55:56;1.47;;;0.90;;
6077;SDS011;3067;49.470;10.394;2023-04-24T09:58:26;1.17;;;1.17;;
6077;SDS011;3067;49.470;10.394;2023-04-24T10:00:56;0.90;;;0.90;;
6077;SDS011;3067;49.470;10.394;2023-04-24T10:03:24;1.27;;;1.27;;
6077;SDS011;3067;49.470;10.394;2023-04-24T10:05:52;1.10;;;1.10;;
6077;SDS011;3067;49.470;10.394;2023-04-24T10:08:20;1.10;;;1.10;;
6077;SDS011;3067;49.470;10.394;2023-04-24T10:10:47;1.20;;;1.20;;
6077;SDS011;3067;49.470;10.394;2023-04-24T10:13:15;1.30;;;0.90;;
6077;SDS011;3067;49.470;10.394;2023-04-24T10:15:42;1.00;;;1.00;;
6077;SDS011;3067;49.470;10.394;2023-04-24T10:18:11;1.57;;;1.47;;
6077;SDS011;3067;49.470;10.394;2023-04-24T10:20:39;1.27;;;1.27;;
6077;SDS011;3067;49.470;10.394;2023-04-24T10:23:07;1.43;;;1.20;;
6077;SDS011;3067;49.470;10.394;2023-04-24T10:25:35;1.50;;;1.40;;
6077;SDS011;3067;49.470;10.394;2023-04-24T10:28:02;2.93;;;1.13;;
6077;SDS011;3067;49.470;10.394;2023-04-24T10:30:31;1.43;;;1.27;;
6077;SDS011;3067;49.470;10.394;2023-04-24T10:33:00;1.00;;;1.00;;
6077;SDS011;3067;49.470;10.394;2023-04-24T10:35:31;1.30;;;1.20;;
6077;SDS011;3067;49.470;10.394;2023-04-24T10:37:59;5.70;;;1.60;;
6077;SDS011;3067;49.470;10.394;2023-04-24T10:40:30;2.60;;;1.87;;
6077;SDS011;3067;49.470;10.394;2023-04-24T10:42:57;5.07;;;1.50;;
6077;SDS011;3067;49.470;10.394;2023-04-24T10:45:25;2.13;;;1.80;;
6077;SDS011;3067;49.470;10.394;2023-04-24T10:47:53;15.73;;;2.37;;
6077;SDS011;3067;49.470;10.394;2023-04-24T10:50:20;6.77;;;1.67;;
6077;SDS011;3067;49.470;10.394;2023-04-24T10:52:49;1.80;;;1.70;;
6077;SDS011;3067;49.470;10.394;2023-04-24T10:55:31;10.13;;;1.87;;
6077;SDS011;3067;49.470;10.394;2023-04-24T10:58:06;2.00;;;1.33;;
6077;SDS011;3067;49.470;10.394;2023-04-24T11:00:33;1.70;;;1.60;;
6077;SDS011;3067;49.470;10.394;2023-04-24T11:03:04;3.77;;;2.13;;
6077;SDS011;3067;49.470;10.394;2023-04-24T11:05:50;8.33;;;1.70;;
6077;SDS011;3067;49.470;10.394;2023-04-24T11:08:23;10.63;;;2.10;;
6077;SDS011;3067;49.470;10.394;2023-04-24T11:10:54;1.83;;;1.80;;
6077;SDS011;3067;49.470;10.394;2023-04-24T11:13:22;4.33;;;2.80;;
6077;SDS011;3067;49.470;10.394;2023-04-24T11:18:36;7.93;;;3.00;;
6077;SDS011;3067;49.470;10.394;2023-04-24T11:21:09;2.20;;;1.97;;
6077;SDS011;3067;49.470;10.394;2023-04-24T11:23:39;2.90;;;2.10;;
6077;SDS011;3067;49.470;10.394;2023-04-24T11:26:10;2.00;;;1.90;;
6077;SDS011;3067;49.470;10.394;2023-04-24T11:28:41;4.93;;;2.17;;
6077;SDS011;3067;49.470;10.394;2023-04-24T11:33:53;2.30;;;2.07;;
6077;SDS011;3067;49.470;10.394;2023-04-24T11:36:20;2.23;;;2.13;;
6077;SDS011;3067;49.470;10.394;2023-04-24T11:38:49;6.83;;;2.10;;
6077;SDS011;3067;49.470;10.394;2023-04-24T11:41:17;1.90;;;1.80;;
6077;SDS011;3067;49.470;10.394;2023-04-24T11:43:45;6.23;;;1.90;;
6077;SDS011;3067;49.470;10.394;2023-04-24T11:46:16;2.73;;;1.93;;
6077;SDS011;3067;49.470;10.394;2023-04-24T11:48:44;22.23;;;2.00;;
6077;SDS011;3067;49.470;10.394;2023-04-24T11:51:12;3.17;;;2.03;;
6077;SDS011;3067;49.470;10.394;2023-04-24T11:53:39;6.53;;;1.80;;
6077;SDS011;3067;49.470;10.394;2023-04-24T11:56:09;4.17;;;2.03;;
6077;SDS011;3067;49.470;10.394;2023-04-24T11:58:37;16.13;;;1.40;;
6077;SDS011;3067;49.470;10.394;2023-04-24T12:01:04;6.87;;;1.90;;
6077;SDS011;3067;49.470;10.394;2023-04-24T12:03:32;2.10;;;1.90;;
6077;SDS011;3067;49.470;10.394;2023-04-24T12:06:04;2.00;;;1.90;;
6077;SDS011;3067;49.470;10.394;2023-04-24T12:08:32;1.70;;;1.57;;
6077;SDS011;3067;49.470;10.394;2023-04-24T12:11:00;3.50;;;1.73;;
6077;SDS011;3067;49.470;10.394;2023-04-24T12:13:29;9.10;;;2.20;;
6077;SDS011;3067;49.470;10.394;2023-04-24T12:15:56;2.47;;;2.27;;
6077;SDS011;3067;49.470;10.394;2023-04-24T12:18:24;4.50;;;2.40;;
6077;SDS011;3067;49.470;10.394;2023-04-24T12:20:51;2.20;;;2.10;;
6077;SDS011;3067;49.470;10.394;2023-04-24T12:23:33;6.57;;;2.73;;
6077;SDS011;3067;49.470;10.394;2023-04-24T12:26:00;5.33;;;1.90;;
6077;SDS011;3067;49.470;10.394;2023-04-24T12:28:35;1.77;;;1.60;;
6077;SDS011;3067;49.470;10.394;2023-04-24T12:31:03;2.17;;;2.00;;
6077;SDS011;3067;49.470;10.394;2023-04-24T12:33:32;6.40;;;2.63;;
6077;SDS011;3067;49.470;10.394;2023-04-24T12:35:59;11.47;;;2.33;;
6077;SDS011;3067;49.470;10.394;2023-04-24T12:38:28;1.70;;;1.60;;
6077;SDS011;3067;49.470;10.394;2023-04-24T12:41:02;2.30;;;2.10;;
6077;SDS011;3067;49.470;10.394;2023-04-24T12:43:30;1.93;;;1.80;;
6077;SDS011;3067;49.470;10.394;2023-04-24T12:45:59;8.37;;;2.10;;
6077;SDS011;3067;49.470;10.394;2023-04-24T12:48:26;5.23;;;2.57;;
6077;SDS011;3067;49.470;10.394;2023-04-24T12:50:53;2.40;;;2.20;;
6077;SDS011;3067;49.470;10.394;2023-04-24T12:53:21;8.80;;;2.23;;
6077;SDS011;3067;49.470;10.394;2023-04-24T12:55:51;2.07;;;1.97;;
6077;SDS011;3067;49.470;10.394;2023-04-24T12:58:19;1.40;;;1.30;;
6077;SDS011;3067;49.470;10.394;2023-04-24T13:00:46;7.00;;;1.93;;
6077;SDS011;3067;49.470;10.394;2023-04-24T13:03:15;1.40;;;1.40;;
6077;SDS011;3067;49.470;10.394;2023-04-24T13:05:42;2.23;;;2.13;;
6077;SDS011;3067;49.470;10.394;2023-04-24T13:08:10;2.33;;;2.23;;
6077;SDS011;3067;49.470;10.394;2023-04-24T13:10:38;1.90;;;1.80;;
6077;SDS011;3067;49.470;10.394;2023-04-24T13:13:05;2.03;;;1.93;;
6077;SDS011;3067;49.470;10.394;2023-04-24T13:15:33;2.60;;;2.40;;
6077;SDS011;3067;49.470;10.394;2023-04-24T13:18:00;2.30;;;2.10;;
6077;SDS011;3067;49.470;10.394;2023-04-24T13:20:29;3.40;;;2.07;;
6077;SDS011;3067;49.470;10.394;2023-04-24T13:22:56;11.80;;;2.90;;
6077;SDS011;3067;49.470;10.394;2023-04-24T13:25:25;5.10;;;2.50;;
6077;SDS011;3067;49.470;10.394;2023-04-24T13:27:53;3.37;;;2.10;;
6077;SDS011;3067;49.470;10.394;2023-04-24T13:30:20;2.80;;;2.50;;
6077;SDS011;3067;49.470;10.394;2023-04-24T13:32:47;2.53;;;2.33;;
6077;SDS011;3067;49.470;10.394;2023-04-24T13:35:15;2.10;;;2.00;;
6077;SDS011;3067;49.470;10.394;2023-04-24T13:37:43;2.60;;;2.17;;
6077;SDS011;3067;49.470;10.394;2023-04-24T13:40:11;2.60;;;2.40;;
6077;SDS011;3067;49.470;10.394;2023-04-24T13:42:38;3.57;;;1.83;;
6077;SDS011;3067;49.470;10.394;2023-04-24T13:45:05;3.60;;;2.23;;
6077;SDS011;3067;49.470;10.394;2023-04-24T13:47:33;1.87;;;1.77;;
6077;SDS011;3067;49.470;10.394;2023-04-24T13:50:01;2.60;;;1.77;;
6077;SDS011;3067;49.470;10.394;2023-04-24T13:52:28;1.43;;;1.37;;
6077;SDS011;3067;49.470;10.394;2023-04-24T13:54:57;2.10;;;2.00;;
6077;SDS011;3067;49.470;10.394;2023-04-24T13:57:24;1.90;;;1.80;;
6077;SDS011;3067;49.470;10.394;2023-04-24T13:59:52;2.17;;;1.97;;
6077;SDS011;3067;49.470;10.394;2023-04-24T14:02:20;2.23;;;2.03;;
6077;SDS011;3067;49.470;10.394;2023-04-24T14:04:48;2.20;;;2.10;;
6077;SDS011;3067;49.470;10.394;2023-04-24T14:07:15;2.40;;;1.77;;
6077;SDS011;3067;49.470;10.394;2023-04-24T14:09:42;2.07;;;1.97;;
6077;SDS011;3067;49.470;10.394;2023-04-24T14:12:11;1.80;;;1.70;;
6077;SDS011;3067;49.470;10.394;2023-04-24T14:14:39;2.17;;;2.07;;
6077;SDS011;3067;49.470;10.394;2023-04-24T14:17:06;1.70;;;1.60;;
6077;SDS011;3067;49.470;10.394;2023-04-24T14:19:33;2.60;;;2.40;;
6077;SDS011;3067;49.470;10.394;2023-04-24T14:22:00;2.70;;;2.50;;
6077;SDS011;3067;49.470;10.394;2023-04-24T14:24:28;1.97;;;1.87;;
6077;SDS011;3067;49.470;10.394;2023-04-24T14:26:55;2.90;;;2.70;;
6077;SDS011;3067;49.470;10.394;2023-04-24T14:29:24;2.47;;;2.37;;
6077;SDS011;3067;49.470;10.394;2023-04-24T14:31:51;3.00;;;2.80;;
6077;SDS011;3067;49.470;10.394;2023-04-24T14:34:19;2.40;;;2.20;;
6077;SDS011;3067;49.470;10.394;2023-04-24T14:36:46;1.90;;;1.80;;
6077;SDS011;3067;49.470;10.394;2023-04-24T14:39:13;2.27;;;2.17;;
6077;SDS011;3067;49.470;10.394;2023-04-24T14:41:40;2.33;;;2.23;;
6077;SDS011;3067;49.470;10.394;2023-04-24T14:44:08;3.87;;;2.50;;
6077;SDS011;3067;49.470;10.394;2023-04-24T14:46:37;3.70;;;2.00;;
6077;SDS011;3067;49.470;10.394;2023-04-24T14:49:05;2.83;;;2.50;;
6077;SDS011;3067;49.470;10.394;2023-04-24T14:51:34;2.57;;;2.37;;
6077;SDS011;3067;49.470;10.394;2023-04-24T14:54:02;2.27;;;2.07;;
6077;SDS011;3067;49.470;10.394;2023-04-24T14:56:29;3.10;;;2.10;;
6077;SDS011;3067;49.470;10.394;2023-04-24T14:58:57;2.37;;;2.20;;
6077;SDS011;3067;49.470;10.394;2023-04-24T15:01:24;2.83;;;2.57;;
6077;SDS011;3067;49.470;10.394;2023-04-24T15:03:53;2.20;;;2.10;;
6077;SDS011;3067;49.470;10.394;2023-04-24T15:06:21;2.83;;;2.63;;
6077;SDS011;3067;49.470;10.394;2023-04-24T15:08:48;2.30;;;2.20;;
6077;SDS011;3067;49.470;10.394;2023-04-24T15:11:16;2.17;;;2.07;;